Apple River, Illinois
Current Conditions -  °F | °C
As of 12:35 PM on Friday 31 Oct 2014 (Local Time) from KPVB Reporting Station
Broken Clouds Broken Clouds  
Wind Chill: 29°   Ceiling: 4500
Heat Index: 39°   Visibility: 10mi
Dew Point: 20°   Wind: 21mph
Humidity: 47%   Direction: 340°NNW
Pressure: 30.36"   Gusts: 32mph
Location:  42.51°N, 90.1°W
Report Text: KPVB 311735Z AUTO 34018G28KT 10SM BKN045 04/M06 A3036 RMK AO1 T00391065
Loading
Personal Weather Stations






























Interactive Weather Map
Tropical Storm Tracking
New forecast layout! Learn more

10-Day Weather Forecast

Advertisements
Track Severe Weather on mobile